Time;durP1;ratioP1;P1;durP2;ratioP2;P2;SDS_P1;SDS_P2;PMS_P1;PMS_P2;Temp;Humidity;BMP_temperature;BMP_pressure;BME280_temperature;BME280_humidity;BME280_pressure;Samples;Min_cycle;Max_cycle;Signal;HPM_P1;HPM_P2
2023/11/03 00:02:39;;;;;;;10.60;5.55;;;9.50;100.00;;;;;;4886229;29;20449;-79
2023/11/03 00:05:12;;;;;;;7.63;4.97;;;9.60;100.00;;;;;;4888718;29;20576;-78
2023/11/03 00:07:39;;;;;;;11.30;4.97;;;9.60;100.00;;;;;;4891395;29;20075;-79
2023/11/03 00:10:09;;;;;;;8.63;4.60;;;9.60;100.00;;;;;;4892342;29;20048;-79
2023/11/03 00:12:38;;;;;;;9.18;4.68;;;9.60;100.00;;;;;;4889068;29;21084;-79
2023/11/03 00:15:06;;;;;;;15.38;5.40;;;9.60;100.00;;;;;;4892334;29;20056;-79
2023/11/03 00:17:33;;;;;;;9.30;5.05;;;9.50;100.00;;;;;;4874608;29;20100;-79
2023/11/03 00:20:00;;;;;;;7.97;4.53;;;9.50;100.00;;;;;;4876292;29;20087;-79
2023/11/03 00:22:28;;;;;;;7.75;4.63;;;9.50;100.00;;;;;;4891938;29;20060;-79
2023/11/03 00:24:55;;;;;;;8.05;4.20;;;9.60;100.00;;;;;;4887722;29;20175;-79
2023/11/03 00:27:23;;;;;;;7.72;4.88;;;9.50;100.00;;;;;;4885107;29;20061;-79
2023/11/03 00:29:52;;;;;;;11.05;4.80;;;9.60;100.00;;;;;;4888508;29;20052;-79
2023/11/03 00:32:19;;;;;;;8.43;4.75;;;9.50;100.00;;;;;;4890578;29;20048;-79
2023/11/03 00:34:47;;;;;;;7.90;4.60;;;9.60;100.00;;;;;;4889984;29;20049;-79
2023/11/03 00:37:14;;;;;;;9.50;5.43;;;9.50;100.00;;;;;;4888477;29;20044;-79
2023/11/03 00:39:41;;;;;;;8.40;4.05;;;9.50;100.00;;;;;;4884162;29;20497;-79
2023/11/03 00:42:09;;;;;;;8.25;4.90;;;9.50;100.00;;;;;;4884220;29;20064;-79
2023/11/03 00:44:37;;;;;;;10.63;5.28;;;9.50;100.00;;;;;;4887604;29;20056;-79
2023/11/03 00:47:06;;;;;;;9.05;5.03;;;9.50;100.00;;;;;;4888370;29;20060;-79
2023/11/03 00:49:33;;;;;;;8.20;5.00;;;9.50;100.00;;;;;;4886022;29;20049;-79
2023/11/03 00:52:00;;;;;;;13.65;4.85;;;9.50;100.00;;;;;;4891946;29;20364;-79
2023/11/03 00:54:27;;;;;;;9.60;5.30;;;9.50;100.00;;;;;;4890957;29;20056;-79
2023/11/03 00:56:54;;;;;;;8.95;5.38;;;9.50;100.00;;;;;;4890239;29;20475;-79
2023/11/03 00:59:21;;;;;;;8.57;4.95;;;9.50;100.00;;;;;;4886001;29;20060;-69
2023/11/03 01:01:48;;;;;;;10.60;4.90;;;9.50;100.00;;;;;;4869688;29;20060;-69
2023/11/03 01:04:15;;;;;;;9.10;5.20;;;9.50;100.00;;;;;;4870564;29;20088;-69
2023/11/03 01:06:42;;;;;;;9.95;5.80;;;9.50;100.00;;;;;;4876867;29;20136;-70
2023/11/03 01:09:09;;;;;;;10.63;5.38;;;9.50;100.00;;;;;;4869888;29;20931;-69
2023/11/03 01:11:37;;;;;;;13.43;4.75;;;9.50;100.00;;;;;;4887423;29;20081;-78
2023/11/03 01:14:05;;;;;;;8.55;5.00;;;9.40;100.00;;;;;;4881003;29;20053;-70
2023/11/03 01:19:28;;;;;;;;;;;9.40;100.00;;;;;;4901750;29;20052;-79
2023/11/03 01:21:55;;;;;;;13.75;5.07;;;9.40;100.00;;;;;;4909051;29;19930;-78
2023/11/03 01:24:25;;;;;;;9.68;5.07;;;9.40;100.00;;;;;;4902924;29;20063;-79
2023/11/03 01:26:52;;;;;;;8.18;4.60;;;9.40;100.00;;;;;;4909834;29;20072;-79
2023/11/03 01:29:20;;;;;;;13.23;5.65;;;9.40;100.00;;;;;;4907107;29;20147;-69
2023/11/03 01:31:49;;;;;;;13.02;5.07;;;9.40;100.00;;;;;;4893070;29;20155;-79
2023/11/03 01:34:16;;;;;;;11.45;4.53;;;9.30;100.00;;;;;;4907671;29;20056;-78
2023/11/03 01:36:43;;;;;;;13.10;5.88;;;9.40;100.00;;;;;;4904151;29;20481;-79
2023/11/03 01:39:10;;;;;;;10.32;4.70;;;9.40;100.00;;;;;;4912165;29;20047;-79
2023/11/03 01:41:37;;;;;;;8.20;4.57;;;9.30;100.00;;;;;;4912070;29;20114;-79
2023/11/03 01:44:11;;;;;;;12.07;5.03;;;9.30;100.00;;;;;;4897196;29;20067;-79
2023/11/03 01:46:41;;;;;;;12.00;5.00;;;9.30;100.00;;;;;;4904417;29;20135;-79
2023/11/03 01:49:10;;;;;;;12.60;4.82;;;9.30;100.00;;;;;;4908938;29;20051;-79
2023/11/03 01:51:39;;;;;;;9.73;4.38;;;9.30;100.00;;;;;;4890758;29;20056;-78
2023/11/03 01:54:07;;;;;;;12.23;4.53;;;9.30;100.00;;;;;;4905949;29;20048;-79
2023/11/03 01:56:36;;;;;;;9.18;4.85;;;9.30;100.00;;;;;;4903841;29;20048;-79
2023/11/03 01:59:05;;;;;;;14.38;4.43;;;9.20;100.00;;;;;;4907792;29;20055;-79
2023/11/03 02:01:34;;;;;;;9.57;5.07;;;9.20;100.00;;;;;;4900475;29;20048;-79
2023/11/03 02:04:02;;;;;;;9.98;5.00;;;9.20;100.00;;;;;;4907779;29;20060;-79
2023/11/03 02:06:29;;;;;;;10.40;4.32;;;9.10;100.00;;;;;;4899898;29;20200;-70
2023/11/03 02:08:56;;;;;;;7.60;4.53;;;9.10;100.00;;;;;;4890152;29;20572;-69
2023/11/03 02:11:31;;;;;;;11.25;5.18;;;9.10;100.00;;;;;;4902419;29;20159;-69
2023/11/03 02:13:59;;;;;;;12.03;4.23;;;9.00;100.00;;;;;;4905300;29;20434;-69
2023/11/03 02:16:26;;;;;;;10.70;4.68;;;9.00;100.00;;;;;;4903584;29;20315;-69
2023/11/03 02:18:53;;;;;;;13.52;4.43;;;8.90;100.00;;;;;;4903206;29;20622;-69
2023/11/03 02:21:21;;;;;;;8.57;4.20;;;8.90;100.00;;;;;;4905079;29;20052;-69
2023/11/03 02:23:48;;;;;;;9.10;4.05;;;8.90;100.00;;;;;;4903861;29;20176;-69
2023/11/03 02:26:15;;;;;;;8.88;3.95;;;8.80;100.00;;;;;;4907029;29;20051;-69
2023/11/03 02:28:42;;;;;;;8.35;3.95;;;8.70;100.00;;;;;;4913035;29;20112;-69
2023/11/03 02:31:08;;;;;;;13.13;4.43;;;8.70;100.00;;;;;;4910263;29;20746;-69
2023/11/03 02:33:35;;;;;;;9.10;4.30;;;8.60;100.00;;;;;;4911008;29;20532;-69
2023/11/03 02:36:03;;;;;;;9.25;4.00;;;8.60;100.00;;;;;;4901862;29;20060;-69
2023/11/03 02:38:30;;;;;;;10.38;4.38;;;8.60;100.00;;;;;;4905053;29;20152;-69
2023/11/03 02:40:57;;;;;;;7.88;3.83;;;8.50;100.00;;;;;;4909931;29;20580;-69
2023/11/03 02:43:24;;;;;;;9.75;4.63;;;8.40;100.00;;;;;;4890043;29;20048;-69
2023/11/03 02:45:51;;;;;;;11.40;4.68;;;8.40;100.00;;;;;;4910934;29;20060;-69
2023/11/03 02:48:18;;;;;;;8.07;4.40;;;8.30;100.00;;;;;;4914208;29;20058;-79
2023/11/03 02:50:45;;;;;;;11.43;4.47;;;8.30;100.00;;;;;;4914903;29;20100;-79
2023/11/03 02:53:12;;;;;;;11.00;5.30;;;8.20;100.00;;;;;;4916182;29;20053;-79
2023/11/03 02:55:40;;;;;;;10.80;5.05;;;8.20;100.00;;;;;;4898552;29;20048;-79
2023/11/03 02:58:07;;;;;;;10.32;4.25;;;8.10;100.00;;;;;;4913197;29;20051;-79
2023/11/03 03:00:37;;;;;;;8.98;4.68;;;8.10;100.00;;;;;;4896727;29;20059;-79
2023/11/03 03:03:05;;;;;;;9.80;4.40;;;8.00;100.00;;;;;;4909791;29;20048;-69
2023/11/03 03:05:33;;;;;;;13.35;4.53;;;8.00;100.00;;;;;;4897068;29;20056;-69
2023/11/03 03:08:01;;;;;;;13.70;4.38;;;7.90;100.00;;;;;;4901528;29;20553;-69
2023/11/03 03:10:28;;;;;;;11.07;4.32;;;7.90;100.00;;;;;;4907872;29;20628;-69
2023/11/03 03:12:54;;;;;;;12.38;4.65;;;7.80;100.00;;;;;;4905436;29;20054;-69
2023/11/03 03:15:22;;;;;;;10.27;4.63;;;7.80;100.00;;;;;;4905629;29;20416;-69
2023/11/03 03:17:49;;;;;;;9.55;4.70;;;7.70;100.00;;;;;;4910306;29;20048;-69
2023/11/03 03:20:16;;;;;;;14.95;4.88;;;7.70;100.00;;;;;;4921079;23;20056;-79
2023/11/03 03:22:43;;;;;;;9.75;4.70;;;7.60;100.00;;;;;;4947831;28;20161;-79
2023/11/03 03:25:10;;;;;;;13.88;4.70;;;7.60;100.00;;;;;;4964050;28;20079;-69
2023/11/03 03:27:37;;;;;;;17.30;4.70;;;7.60;100.00;;;;;;4962064;28;20043;-69
2023/11/03 03:30:05;;;;;;;14.30;6.43;;;7.50;100.00;;;;;;4964971;28;20047;-69
2023/11/03 03:32:32;;;;;;;16.73;6.15;;;7.50;100.00;;;;;;4954150;28;20050;-69
2023/11/03 03:34:59;;;;;;;16.90;5.72;;;7.50;100.00;;;;;;4959376;28;20047;-69
2023/11/03 03:37:26;;;;;;;12.13;5.30;;;7.50;100.00;;;;;;4957191;28;20058;-69
2023/11/03 03:39:53;;;;;;;8.32;4.50;;;7.40;100.00;;;;;;4943288;28;20082;-69
2023/11/03 03:42:20;;;;;;;9.25;4.80;;;7.40;100.00;;;;;;4944776;28;20129;-79
2023/11/03 03:44:47;;;;;;;9.27;4.45;;;7.40;100.00;;;;;;4959854;28;20137;-79
2023/11/03 03:47:14;;;;;;;10.90;4.65;;;7.40;100.00;;;;;;4948835;28;20114;-79
2023/11/03 03:49:40;;;;;;;10.70;3.97;;;7.40;100.00;;;;;;4962435;28;20069;-78
2023/11/03 03:52:07;;;;;;;9.98;4.70;;;7.40;100.00;;;;;;4964275;28;20055;-79
2023/11/03 03:54:34;;;;;;;12.80;5.18;;;7.40;100.00;;;;;;4957657;28;20054;-79
2023/11/03 03:57:01;;;;;;;13.30;4.78;;;7.40;100.00;;;;;;4960104;28;20527;-79
2023/11/03 03:59:29;;;;;;;10.77;4.45;;;7.40;100.00;;;;;;4963976;28;20382;-79
2023/11/03 04:01:56;;;;;;;11.05;4.40;;;7.40;100.00;;;;;;4938386;28;20055;-79
2023/11/03 04:04:24;;;;;;;11.50;4.07;;;7.40;100.00;;;;;;4958885;28;20050;-79
2023/11/03 04:06:51;;;;;;;11.15;4.57;;;7.40;100.00;;;;;;4950215;28;20070;-69
2023/11/03 04:09:18;;;;;;;9.38;3.92;;;7.40;100.00;;;;;;4957757;28;20055;-79
2023/11/03 04:11:44;;;;;;;9.48;4.35;;;7.40;100.00;;;;;;4939251;28;20047;-78
2023/11/03 04:14:11;;;;;;;10.95;4.82;;;7.40;100.00;;;;;;4951858;28;20051;-79
2023/11/03 04:16:38;;;;;;;10.98;4.43;;;7.40;100.00;;;;;;4960660;28;20047;-79
2023/11/03 04:19:05;;;;;;;14.18;4.00;;;7.40;100.00;;;;;;4960164;28;20051;-79
2023/11/03 04:21:33;;;;;;;8.55;3.92;;;7.40;100.00;;;;;;4958525;28;20102;-69
2023/11/03 04:24:00;;;;;;;15.95;4.70;;;7.40;100.00;;;;;;4933049;28;20065;-69
2023/11/03 04:26:27;;;;;;;10.02;3.97;;;7.40;100.00;;;;;;4933233;28;20082;-69
2023/11/03 04:28:54;;;;;;;9.32;4.63;;;7.40;100.00;;;;;;4951781;28;20047;-69
2023/11/03 04:31:21;;;;;;;10.25;3.95;;;7.40;100.00;;;;;;4957446;28;20137;-78
2023/11/03 04:33:49;;;;;;;13.40;4.13;;;7.40;100.00;;;;;;4960262;28;20559;-79
2023/11/03 04:36:16;;;;;;;15.10;3.78;;;7.30;100.00;;;;;;4959034;28;20051;-79
2023/11/03 04:38:43;;;;;;;9.13;3.15;;;7.30;100.00;;;;;;4959681;28;20047;-79
2023/11/03 04:41:10;;;;;;;7.95;3.78;;;7.30;100.00;;;;;;4964661;28;20594;-79
2023/11/03 04:43:40;;;;;;;8.40;2.97;;;7.30;100.00;;;;;;4963858;28;20389;-79
2023/11/03 04:46:08;;;;;;;8.10;3.28;;;7.30;100.00;;;;;;4964993;28;20055;-79
2023/11/03 04:48:37;;;;;;;9.05;3.28;;;7.30;100.00;;;;;;4955587;28;20824;-79
2023/11/03 04:51:04;;;;;;;11.13;3.78;;;7.30;100.00;;;;;;4957828;28;20065;-69
2023/11/03 04:53:31;;;;;;;12.65;4.03;;;7.30;100.00;;;;;;4934739;29;20146;-69
2023/11/03 04:55:58;;;;;;;9.88;3.70;;;7.30;100.00;;;;;;4946962;28;20050;-69
2023/11/03 04:58:25;;;;;;;9.35;3.30;;;7.30;100.00;;;;;;4951338;28;20130;-69
2023/11/03 05:00:52;;;;;;;12.23;3.80;;;7.30;100.00;;;;;;4955417;28;20059;-69
2023/11/03 05:03:19;;;;;;;9.25;3.85;;;7.30;100.00;;;;;;4921154;28;20069;-69
2023/11/03 05:05:47;;;;;;;8.00;3.50;;;7.30;100.00;;;;;;4938768;28;20087;-69
2023/11/03 05:08:13;;;;;;;10.80;3.75;;;7.20;100.00;;;;;;4935932;28;20149;-69
2023/11/03 05:10:41;;;;;;;8.75;3.72;;;7.20;100.00;;;;;;4918932;28;20144;-69
2023/11/03 05:16:13;;;;;;;7.38;3.35;;;7.20;100.00;;;;;;4897303;29;20083;-69
2023/11/03 05:18:40;;;;;;;12.55;3.13;;;7.10;100.00;;;;;;4885901;29;20068;-69
2023/11/03 05:21:11;;;;;;;6.47;2.75;;;7.10;100.00;;;;;;4904573;29;20060;-69
2023/11/03 05:23:38;;;;;;;15.18;3.25;;;7.10;100.00;;;;;;4900308;29;20531;-69
2023/11/03 05:26:05;;;;;;;10.55;3.38;;;7.00;100.00;;;;;;4905312;29;20715;-69
2023/11/03 05:28:32;;;;;;;7.85;2.90;;;7.00;100.00;;;;;;4900768;29;20060;-69
2023/11/03 05:30:58;;;;;;;8.98;2.90;;;7.00;100.00;;;;;;4900396;29;20107;-69
2023/11/03 05:33:25;;;;;;;9.95;3.10;;;6.90;100.00;;;;;;4945347;23;20050;-69
2023/11/03 05:35:52;;;;;;;5.55;2.83;;;6.90;100.00;;;;;;4959812;28;20134;-69
2023/11/03 05:38:19;;;;;;;5.57;2.60;;;6.90;100.00;;;;;;4961094;28;20059;-69
2023/11/03 05:40:46;;;;;;;15.05;3.13;;;6.90;100.00;;;;;;4958022;28;20154;-69
2023/11/03 05:43:13;;;;;;;7.57;2.50;;;6.90;100.00;;;;;;4954876;28;20046;-70
2023/11/03 05:45:40;;;;;;;5.28;2.30;;;6.90;100.00;;;;;;4961259;28;20061;-70
2023/11/03 05:48:07;;;;;;;10.13;2.38;;;6.90;100.00;;;;;;4966759;28;20082;-78
2023/11/03 05:50:34;;;;;;;5.78;2.50;;;6.90;100.00;;;;;;4953601;28;20055;-78
2023/11/03 05:53:01;;;;;;;8.15;2.60;;;6.80;100.00;;;;;;4960694;28;20077;-78
2023/11/03 05:55:28;;;;;;;13.23;2.85;;;6.80;100.00;;;;;;4965130;28;20075;-79
2023/11/03 05:57:55;;;;;;;15.90;2.95;;;6.80;100.00;;;;;;4966506;28;20046;-80
2023/11/03 06:00:22;;;;;;;7.18;2.53;;;6.80;100.00;;;;;;4965606;28;20051;-77
2023/11/03 06:02:52;;;;;;;8.85;2.95;;;6.80;100.00;;;;;;4967158;28;20042;-76
2023/11/03 06:05:19;;;;;;;6.43;2.88;;;6.70;100.00;;;;;;4951468;28;20059;-81
2023/11/03 06:07:46;;;;;;;9.75;2.70;;;6.70;100.00;;;;;;4964351;28;20670;-78
2023/11/03 06:10:13;;;;;;;8.13;2.45;;;6.70;100.00;;;;;;4964899;28;20061;-77
2023/11/03 06:12:40;;;;;;;7.50;2.38;;;6.70;100.00;;;;;;4966086;28;20047;-78
2023/11/03 06:15:08;;;;;;;8.23;2.42;;;6.60;100.00;;;;;;4952383;28;20051;-78
2023/11/03 06:17:35;;;;;;;13.10;2.88;;;6.60;100.00;;;;;;4953150;28;20065;-76
2023/11/03 06:20:03;;;;;;;5.70;2.53;;;6.60;100.00;;;;;;4946264;28;20391;-77
2023/11/03 06:22:30;;;;;;;10.82;3.58;;;6.60;100.00;;;;;;4951085;28;20050;-79
2023/11/03 06:24:56;;;;;;;5.18;2.22;;;6.60;100.00;;;;;;4970238;28;20475;-77
2023/11/03 06:27:23;;;;;;;8.38;2.33;;;6.50;100.00;;;;;;4953355;28;20503;-79
2023/11/03 06:29:50;;;;;;;5.40;2.22;;;6.50;100.00;;;;;;4945102;28;20090;-76
2023/11/03 06:32:17;;;;;;;10.27;2.65;;;6.50;100.00;;;;;;4947279;28;20063;-78
2023/11/03 06:34:44;;;;;;;6.80;2.60;;;6.50;100.00;;;;;;4955324;28;20460;-79
2023/11/03 06:37:11;;;;;;;7.47;2.10;;;6.50;100.00;;;;;;4947066;28;20051;-78
2023/11/03 06:39:38;;;;;;;7.35;2.40;;;6.50;100.00;;;;;;4966316;28;20502;-78
2023/11/03 06:42:06;;;;;;;4.80;1.98;;;6.50;100.00;;;;;;4951311;28;20055;-79
2023/11/03 06:44:33;;;;;;;11.07;2.95;;;6.50;100.00;;;;;;4969361;28;20051;-78
2023/11/03 06:47:00;;;;;;;12.65;2.30;;;6.50;100.00;;;;;;4954463;28;20092;-79
2023/11/03 06:49:27;;;;;;;5.15;1.63;;;6.50;100.00;;;;;;4958164;28;20082;-79
2023/11/03 06:51:54;;;;;;;3.80;2.08;;;6.50;100.00;;;;;;4965174;28;20645;-79
2023/11/03 06:54:21;;;;;;;8.07;2.40;;;6.50;100.00;;;;;;4968979;28;20050;-78
2023/11/03 06:56:48;;;;;;;8.45;2.40;;;6.60;100.00;;;;;;4968043;28;20047;-79
2023/11/03 06:59:15;;;;;;;7.38;2.22;;;6.60;100.00;;;;;;4957425;28;20447;-79
2023/11/03 07:01:41;;;;;;;14.50;2.55;;;6.50;100.00;;;;;;4974402;28;20093;-79
2023/11/03 07:04:09;;;;;;;5.32;2.20;;;6.50;100.00;;;;;;4944118;28;20189;-79
2023/11/03 07:06:36;;;;;;;8.38;2.08;;;6.50;100.00;;;;;;4964751;28;20059;-79
2023/11/03 07:09:04;;;;;;;14.07;2.55;;;6.50;100.00;;;;;;4965699;28;20047;-71
2023/11/03 07:11:34;;;;;;;8.05;2.10;;;6.40;100.00;;;;;;4939242;28;20174;-70
2023/11/03 07:14:02;;;;;;;6.28;2.03;;;6.40;100.00;;;;;;4957805;28;20847;-70
2023/11/03 07:16:28;;;;;;;5.13;2.13;;;6.50;100.00;;;;;;4952934;28;20118;-79
2023/11/03 07:18:55;;;;;;;6.28;2.30;;;6.40;100.00;;;;;;4971232;28;20671;-79
2023/11/03 07:25:04;;;;;;;5.07;1.40;;;6.40;100.00;;;;;;4930171;23;20062;-79
2023/11/03 07:27:32;;;;;;;5.90;2.00;;;6.40;100.00;;;;;;4927433;23;20134;-79
2023/11/03 07:29:59;;;;;;;3.92;1.50;;;6.40;100.00;;;;;;4931596;29;20083;-70
2023/11/03 07:32:27;;;;;;;10.85;2.08;;;6.50;100.00;;;;;;4921555;29;20146;-70
2023/11/03 07:34:55;;;;;;;5.88;1.70;;;6.50;100.00;;;;;;4928570;29;20641;-70
2023/11/03 07:37:22;;;;;;;9.35;1.85;;;6.50;100.00;;;;;;4926601;29;20473;-70
2023/11/03 07:39:50;;;;;;;2.47;1.20;;;6.50;100.00;;;;;;4925838;29;20170;-70
2023/11/03 07:42:17;;;;;;;8.95;1.80;;;6.50;100.00;;;;;;4925704;29;20122;-70
2023/11/03 07:44:44;;;;;;;10.00;1.92;;;6.60;100.00;;;;;;4927629;29;20051;-69
2023/11/03 07:47:11;;;;;;;15.07;1.90;;;6.60;100.00;;;;;;4937683;29;20575;-70
2023/11/03 07:49:38;;;;;;;5.03;1.70;;;6.60;100.00;;;;;;4927759;29;20122;-70
2023/11/03 07:52:05;;;;;;;3.25;1.58;;;6.60;100.00;;;;;;4926908;29;20044;-70
2023/11/03 07:54:32;;;;;;;8.18;1.88;;;6.60;100.00;;;;;;4928001;29;20562;-70
2023/11/03 07:57:02;;;;;;;5.90;1.80;;;6.60;100.00;;;;;;4928125;29;20060;-70
2023/11/03 07:59:29;;;;;;;5.05;1.70;;;6.70;100.00;;;;;;4922288;29;20052;-70
2023/11/03 08:01:56;;;;;;;6.40;1.70;;;6.80;100.00;;;;;;4926832;29;20052;-70
2023/11/03 08:04:23;;;;;;;8.15;1.90;;;6.90;100.00;;;;;;4928604;29;20134;-70
2023/11/03 08:06:50;;;;;;;9.85;2.13;;;6.90;100.00;;;;;;4928097;29;20481;-70
2023/11/03 08:09:18;;;;;;;3.13;1.50;;;7.00;100.00;;;;;;4933980;29;20746;-70
2023/11/03 08:11:44;;;;;;;9.75;1.60;;;7.10;100.00;;;;;;4929524;28;20055;-70
2023/11/03 08:14:11;;;;;;;6.72;1.55;;;7.10;100.00;;;;;;4923352;29;20609;-70
2023/11/03 08:16:45;;;;;;;9.35;1.55;;;7.20;100.00;;;;;;4925843;29;20051;-70
2023/11/03 08:19:12;;;;;;;7.95;1.63;;;7.30;100.00;;;;;;4922552;29;20052;-70
2023/11/03 08:21:43;;;;;;;6.45;1.52;;;7.30;100.00;;;;;;4934317;29;20079;-70
2023/11/03 08:24:13;;;;;;;6.60;1.45;;;7.40;100.00;;;;;;4925497;28;20063;-70
2023/11/03 08:26:41;;;;;;;6.90;2.10;;;7.40;100.00;;;;;;4927569;29;20063;-70
2023/11/03 08:29:08;;;;;;;6.65;1.52;;;7.50;100.00;;;;;;4931250;29;20165;-70
2023/11/03 08:31:36;;;;;;;5.05;1.40;;;7.60;100.00;;;;;;4927877;29;20051;-70
2023/11/03 08:34:11;;;;;;;11.65;2.08;;;7.60;100.00;;;;;;4923027;29;20716;-72
2023/11/03 08:36:38;;;;;;;4.60;1.00;;;7.70;100.00;;;;;;4922557;29;20477;-70
2023/11/03 08:39:08;;;;;;;4.00;1.45;;;7.80;100.00;;;;;;4923044;29;20059;-70
2023/11/03 08:41:54;;;;;;;5.93;1.40;;;7.80;100.00;;;;;;4926358;29;20055;-71
2023/11/03 08:44:22;;;;;;;5.75;1.92;;;7.90;100.00;;;;;;4923652;29;20051;-70
2023/11/03 08:46:50;;;;;;;5.45;1.40;;;8.00;100.00;;;;;;4921239;29;20104;-70
2023/11/03 08:49:17;;;;;;;3.17;1.52;;;8.00;100.00;;;;;;4921499;29;20063;-70
2023/11/03 08:51:44;;;;;;;9.25;1.83;;;8.10;100.00;;;;;;4921730;29;20158;-70
2023/11/03 08:54:11;;;;;;;7.18;2.03;;;8.10;100.00;;;;;;4920012;29;20767;-70
2023/11/03 08:56:38;;;;;;;11.10;1.65;;;8.10;100.00;;;;;;4919778;29;20048;-70
2023/11/03 08:59:05;;;;;;;9.40;1.58;;;8.20;100.00;;;;;;4925204;29;20052;-70
2023/11/03 09:01:33;;;;;;;5.60;1.20;;;8.30;100.00;;;;;;4924030;29;20102;-70
2023/11/03 09:04:01;;;;;;;5.70;0.98;;;8.30;100.00;;;;;;4925735;28;20138;-70
2023/11/03 09:06:29;;;;;;;2.65;1.13;;;8.40;100.00;;;;;;4919810;29;20067;-70
2023/11/03 09:08:56;;;;;;;6.55;1.30;;;8.50;100.00;;;;;;4917588;29;20063;-70
2023/11/03 09:11:23;;;;;;;11.50;1.58;;;8.60;100.00;;;;;;4915327;29;20135;-70
2023/11/03 09:13:54;;;;;;;6.57;0.90;;;8.80;100.00;;;;;;4908696;29;20378;-70
2023/11/03 09:16:22;;;;;;;10.48;1.20;;;8.80;100.00;;;;;;4925265;29;20106;-70
2023/11/03 09:18:52;;;;;;;4.82;0.80;;;8.90;100.00;;;;;;4922288;28;20047;-70
2023/11/03 09:21:20;;;;;;;10.65;1.40;;;9.00;100.00;;;;;;4922195;29;20051;-70
2023/11/03 09:23:47;;;;;;;6.85;1.60;;;9.00;100.00;;;;;;4918631;29;20047;-70
2023/11/03 09:26:14;;;;;;;4.82;1.30;;;9.10;100.00;;;;;;4918472;29;20181;-70
2023/11/03 09:28:41;;;;;;;6.60;0.80;;;9.20;100.00;;;;;;4920970;29;20429;-70
2023/11/03 09:31:08;;;;;;;11.25;1.02;;;9.20;100.00;;;;;;4923496;29;20048;-70
2023/11/03 09:33:35;;;;;;;8.57;1.13;;;9.20;100.00;;;;;;4920661;29;20062;-70
2023/11/03 09:36:05;;;;;;;3.03;1.23;;;9.30;100.00;;;;;;4925475;29;20071;-70
2023/11/03 09:38:32;;;;;;;4.90;1.17;;;9.30;100.00;;;;;;4929350;28;20060;-70
2023/11/03 09:40:59;;;;;;;16.65;1.58;;;9.30;100.00;;;;;;4932828;29;20055;-70
2023/11/03 09:43:29;;;;;;;11.93;1.55;;;9.40;100.00;;;;;;4920468;29;20189;-70
2023/11/03 09:45:57;;;;;;;4.30;1.10;;;9.50;100.00;;;;;;4906484;29;20051;-70
2023/11/03 09:48:29;;;;;;;17.75;1.65;;;9.50;100.00;;;;;;4918487;29;20055;-70
2023/11/03 09:50:56;;;;;;;6.55;1.60;;;9.70;100.00;;;;;;4918797;29;20063;-70
2023/11/03 09:53:25;;;;;;;5.95;1.10;;;9.70;100.00;;;;;;4913859;29;20051;-70
2023/11/03 09:55:55;;;;;;;3.72;1.10;;;9.80;100.00;;;;;;4924537;29;20048;-70
2023/11/03 09:58:22;;;;;;;11.15;1.90;;;9.90;100.00;;;;;;4932717;29;20047;-70
2023/11/03 10:00:49;;;;;;;6.88;2.13;;;10.00;100.00;;;;;;4921331;29;20048;-70
2023/11/03 10:03:17;;;;;;;2.92;0.75;;;10.10;100.00;;;;;;4922349;29;20051;-70
2023/11/03 10:05:44;;;;;;;7.22;1.20;;;10.20;100.00;;;;;;4923662;29;20371;-70
2023/11/03 10:08:13;;;;;;;10.27;0.90;;;10.30;100.00;;;;;;4916220;29;20056;-70
2023/11/03 10:10:40;;;;;;;5.15;1.35;;;10.30;100.00;;;;;;4924017;29;20140;-70
2023/11/03 10:13:11;;;;;;;8.40;1.00;;;10.40;100.00;;;;;;4920033;29;20055;-70
2023/11/03 10:15:39;;;;;;;6.28;0.80;;;10.50;100.00;;;;;;4923647;29;20394;-70
2023/11/03 10:18:08;;;;;;;3.85;1.08;;;10.60;100.00;;;;;;4916808;29;20052;-70
2023/11/03 10:20:35;;;;;;;4.90;0.80;;;10.70;100.00;;;;;;4922749;29;20048;-70
2023/11/03 10:23:02;;;;;;;5.68;1.08;;;10.80;100.00;;;;;;4922943;29;20258;-70
2023/11/03 10:25:31;;;;;;;3.60;0.88;;;10.90;100.00;;;;;;4921487;29;20115;-71
2023/11/03 10:28:01;;;;;;;10.15;1.00;;;11.00;100.00;;;;;;4916484;29;20729;-70
2023/11/03 10:30:29;;;;;;;10.57;1.90;;;11.20;100.00;;;;;;4922679;29;20062;-70
2023/11/03 10:32:56;;;;;;;5.53;0.80;;;11.20;100.00;;;;;;4916186;29;20397;-70
2023/11/03 10:35:23;;;;;;;2.83;0.60;;;11.30;98.40;;;;;;4920514;29;20051;-70
2023/11/03 10:37:53;;;;;;;6.13;1.25;;;11.40;98.20;;;;;;4925943;29;20162;-70
2023/11/03 10:40:21;;;;;;;4.57;1.05;;;11.50;100.00;;;;;;4920281;29;20057;-70
2023/11/03 10:42:53;;;;;;;7.13;1.08;;;11.40;98.90;;;;;;4921899;29;20162;-70
2023/11/03 10:45:20;;;;;;;6.55;1.00;;;11.70;96.40;;;;;;4913113;29;20066;-70
2023/11/03 10:48:13;;;;;;;4.32;0.95;;;11.80;98.90;;;;;;4924581;29;20154;-71
2023/11/03 10:50:59;;;;;;;7.13;0.90;;;12.00;96.40;;;;;;4921623;29;20134;-70
2023/11/03 10:53:45;;;;;;;8.85;1.20;;;12.10;95.30;;;;;;4922578;29;20520;-70
2023/11/03 10:56:19;;;;;;;8.07;1.30;;;12.00;94.70;;;;;;4923372;29;20703;-70
2023/11/03 10:59:09;;;;;;;6.93;0.93;;;12.00;98.10;;;;;;4921223;29;20069;-70
2023/11/03 11:01:43;;;;;;;5.50;0.88;;;12.10;96.00;;;;;;4923961;29;20047;-70
2023/11/03 11:04:16;;;;;;;8.10;1.48;;;12.00;96.60;;;;;;4924596;29;20059;-70
2023/11/03 11:06:53;;;;;;;12.02;1.88;;;12.00;95.50;;;;;;4928772;29;20058;-70
2023/11/03 11:09:48;;;;;;;3.97;1.00;;;12.00;94.60;;;;;;4926063;29;20053;-80
2023/11/03 11:12:15;;;;;;;2.47;0.80;;;12.00;93.90;;;;;;4926166;29;20075;-79
2023/11/03 11:14:43;;;;;;;13.07;1.40;;;12.00;92.20;;;;;;4930830;29;20060;-79
2023/11/03 11:17:17;;;;;;;6.75;0.85;;;11.90;92.20;;;;;;4929902;29;20485;-80
2023/11/03 11:19:47;;;;;;;5.07;0.95;;;11.90;93.70;;;;;;4929207;29;20046;-79
2023/11/03 11:22:18;;;;;;;7.05;1.00;;;12.00;95.60;;;;;;4933396;29;20151;-79
2023/11/03 11:24:47;;;;;;;3.38;0.80;;;12.00;95.10;;;;;;4930424;29;20047;-80
2023/11/03 11:27:24;;;;;;;5.28;0.98;;;12.00;94.60;;;;;;4923805;29;20067;-80
2023/11/03 11:30:23;;;;;;;1.27;0.70;;;11.90;93.30;;;;;;4927197;29;20054;-81
2023/11/03 11:35:23;;;;;;;5.07;0.95;;;11.90;91.80;;;;;;4909249;29;20151;-79
2023/11/03 11:37:50;;;;;;;2.42;0.77;;;11.80;90.60;;;;;;4914288;29;20056;-81
2023/11/03 11:40:20;;;;;;;2.92;0.75;;;11.90;91.20;;;;;;4897840;29;20497;-80
2023/11/03 11:42:49;;;;;;;10.18;1.58;;;11.80;91.60;;;;;;4911793;29;20159;-81
2023/11/03 11:45:18;;;;;;;5.72;1.17;;;11.90;92.70;;;;;;4904596;29;20132;-74
2023/11/03 11:47:47;;;;;;;3.38;0.65;;;12.00;92.80;;;;;;4905991;29;20489;-70
2023/11/03 11:50:16;;;;;;;2.92;0.90;;;12.00;91.50;;;;;;4907203;29;20044;-70
2023/11/03 11:52:45;;;;;;;2.95;1.02;;;12.10;92.80;;;;;;4896601;29;20633;-70
2023/11/03 11:55:13;;;;;;;5.68;0.93;;;12.20;90.70;;;;;;4903539;29;20056;-69
2023/11/03 11:57:43;;;;;;;6.82;0.95;;;12.20;88.40;;;;;;4888314;29;20127;-70
2023/11/03 12:00:17;;;;;;;17.10;1.25;;;12.20;89.60;;;;;;4908050;29;20112;-70
2023/11/03 12:02:49;;;;;;;3.67;0.70;;;12.30;90.30;;;;;;4890167;29;20088;-70
2023/11/03 12:05:17;;;;;;;7.10;1.30;;;12.30;88.50;;;;;;4906007;29;20059;-69
2023/11/03 12:07:45;;;;;;;4.03;1.08;;;12.40;91.10;;;;;;4902753;29;20050;-69
2023/11/03 12:10:13;;;;;;;9.60;1.35;;;12.40;88.00;;;;;;4887020;29;20087;-70
2023/11/03 12:12:41;;;;;;;4.47;1.17;;;12.50;90.10;;;;;;4906643;29;20753;-70
2023/11/03 12:15:08;;;;;;;8.80;1.27;;;12.60;88.50;;;;;;4902650;29;20052;-69
2023/11/03 12:17:35;;;;;;;11.93;1.10;;;12.70;91.20;;;;;;4888585;29;20076;-69
2023/11/03 12:20:03;;;;;;;2.22;1.00;;;12.80;91.50;;;;;;4907404;29;20131;-70
2023/11/03 12:22:31;;;;;;;9.07;1.17;;;12.80;88.50;;;;;;4902823;29;20203;-69
2023/11/03 12:24:58;;;;;;;4.75;0.80;;;12.90;92.80;;;;;;4904346;29;20135;-70
2023/11/03 12:27:25;;;;;;;3.58;1.13;;;13.00;90.70;;;;;;4907925;29;20060;-69
2023/11/03 12:30:02;;;;;;;3.65;1.20;;;13.00;86.20;;;;;;4889310;29;20158;-69
2023/11/03 12:32:31;;;;;;;3.22;1.52;;;13.00;89.30;;;;;;4907969;29;20664;-69
2023/11/03 12:34:58;;;;;;;5.80;1.02;;;13.00;88.70;;;;;;4903451;29;20401;-69
2023/11/03 12:37:25;;;;;;;4.22;0.95;;;12.90;86.80;;;;;;4907712;29;20888;-69
2023/11/03 12:39:54;;;;;;;3.33;0.70;;;12.90;87.70;;;;;;4908920;29;20134;-69
2023/11/03 12:42:23;;;;;;;3.42;0.70;;;12.90;85.10;;;;;;4912328;29;20528;-69
2023/11/03 12:47:51;;;;;;;5.20;1.08;;;12.70;87.00;;;;;;4921942;29;20047;-77
2023/11/03 12:50:19;;;;;;;3.38;0.70;;;12.50;88.90;;;;;;4927897;29;20142;-69
2023/11/03 12:55:27;;;;;;;2.47;0.90;;;12.30;87.30;;;;;;4911452;29;20060;-78
2023/11/03 12:57:57;;;;;;;5.30;1.23;;;12.20;90.80;;;;;;4910285;29;20060;-78
2023/11/03 13:00:31;;;;;;;10.55;1.10;;;12.00;90.00;;;;;;4920777;29;20071;-78
2023/11/03 13:02:58;;;;;;;1.33;0.90;;;11.90;89.70;;;;;;4910597;29;20063;-78
2023/11/03 13:05:25;;;;;;;4.60;1.00;;;11.80;88.60;;;;;;4945132;23;20229;-69
2023/11/03 13:07:57;;;;;;;6.10;1.00;;;11.70;88.20;;;;;;4944054;28;20535;-68